CFG5CU EDDF-EPGD
Flight info
| Callsign | CFG5CU |
|---|---|
| Flight time | 1h 10m |
| Altitude | 34000 |
| Route | TOBAK9D TOBAK N858 FEDZA Y172 MAG DCT RENKI L132 BODLA DCT ROVEK DCT LUXAL L730 KOSEX |
| Aircraft | A320/M-SDE3FGHIRWY/LB1 |
Departure
| Time | 2026-04-14 11:55 |
|---|---|
| Airport | Frankfurt Main Airport (EDDF) |
Arrival
| Time | 2026-04-14 13:05 |
|---|---|
| Airport | Gdańsk Lech Wałęsa Airport (EPGD) |
| Time | Latitude | Longitude | Altitude | Speed | Heading |
|---|---|---|---|---|---|
| 2026-04-14 11:41 | 50.04883 | 8.57441 | 356 ft | 0 kts | 218° |
| 2026-04-14 11:44 | 50.04886 | 8.57445 | 356 ft | 2 kts | 218° |
| 2026-04-14 11:44 | 50.04902 | 8.57463 | 365 ft | 3 kts | 217° |
| 2026-04-14 11:44 | 50.04918 | 8.57481 | 363 ft | 3 kts | 210° |
| 2026-04-14 11:44 | 50.04935 | 8.57493 | 358 ft | 3 kts | 175° |
| 2026-04-14 11:45 | 50.04946 | 8.57489 | 357 ft | 1 kts | 116° |
| 2026-04-14 11:45 | 50.04942 | 8.57501 | 357 ft | 3 kts | 115° |
| 2026-04-14 11:45 | 50.04934 | 8.57530 | 358 ft | 3 kts | 114° |
| 2026-04-14 11:45 | 50.04926 | 8.57559 | 358 ft | 3 kts | 114° |
| 2026-04-14 11:46 | 50.04917 | 8.57587 | 358 ft | 3 kts | 114° |
| 2026-04-14 11:46 | 50.04909 | 8.57616 | 361 ft | 3 kts | 114° |
| 2026-04-14 11:46 | 50.04905 | 8.57630 | 358 ft | 0 kts | 114° |
| 2026-04-14 11:49 | 50.04885 | 8.57700 | 360 ft | 14 kts | 114° |
| 2026-04-14 11:49 | 50.04825 | 8.57882 | 361 ft | 21 kts | 140° |
| 2026-04-14 11:49 | 50.04693 | 8.57962 | 362 ft | 20 kts | 159° |
| 2026-04-14 11:50 | 50.04571 | 8.58027 | 361 ft | 16 kts | 182° |
| 2026-04-14 11:50 | 50.04514 | 8.57901 | 364 ft | 18 kts | 248° |
| 2026-04-14 11:50 | 50.04466 | 8.57712 | 366 ft | 19 kts | 246° |
| 2026-04-14 11:51 | 50.04367 | 8.57282 | 365 ft | 25 kts | 250° |
| 2026-04-14 11:51 | 50.04304 | 8.57023 | 362 ft | 27 kts | 250° |
| 2026-04-14 11:51 | 50.04239 | 8.56744 | 362 ft | 28 kts | 250° |
| 2026-04-14 11:51 | 50.04167 | 8.56442 | 360 ft | 31 kts | 250° |
| 2026-04-14 11:52 | 50.04090 | 8.56120 | 355 ft | 32 kts | 249° |
| 2026-04-14 11:52 | 50.04010 | 8.55788 | 350 ft | 29 kts | 249° |
| 2026-04-14 11:52 | 50.03940 | 8.55486 | 351 ft | 30 kts | 249° |
| 2026-04-14 11:52 | 50.03865 | 8.55178 | 355 ft | 31 kts | 249° |
| 2026-04-14 11:53 | 50.03788 | 8.54857 | 350 ft | 32 kts | 251° |
| 2026-04-14 11:53 | 50.03711 | 8.54521 | 346 ft | 34 kts | 249° |
| 2026-04-14 11:53 | 50.03611 | 8.54313 | 341 ft | 19 kts | 173° |
| 2026-04-14 11:53 | 50.03497 | 8.54374 | 348 ft | 12 kts | 160° |
| 2026-04-14 11:54 | 50.03495 | 8.54439 | 352 ft | 6 kts | 67° |
| 2026-04-14 11:54 | 50.03548 | 8.54658 | 344 ft | 53 kts | 69° |
| 2026-04-14 11:54 | 50.03760 | 8.55550 | 348 ft | 118 kts | 70° |
| 2026-04-14 11:54 | 50.04111 | 8.57011 | 371 ft | 167 kts | 70° |
| 2026-04-14 11:55 | 50.04518 | 8.58785 | 894 ft | 174 kts | 68° |
| 2026-04-14 11:55 | 50.04923 | 8.60538 | 1796 ft | 171 kts | 67° |
| 2026-04-14 11:55 | 50.05327 | 8.62292 | 2418 ft | 178 kts | 68° |
| 2026-04-14 11:55 | 50.05768 | 8.64213 | 2733 ft | 200 kts | 69° |
| 2026-04-14 11:56 | 50.06255 | 8.66368 | 3095 ft | 221 kts | 69° |
| 2026-04-14 11:56 | 50.06769 | 8.68647 | 3842 ft | 224 kts | 68° |
| 2026-04-14 11:56 | 50.07539 | 8.70727 | 4662 ft | 224 kts | 45° |
| 2026-04-14 11:56 | 50.08843 | 8.72180 | 5132 ft | 242 kts | 24° |
| 2026-04-14 11:57 | 50.10441 | 8.73264 | 5707 ft | 256 kts | 22° |
| 2026-04-14 11:57 | 50.12095 | 8.74364 | 6536 ft | 261 kts | 22° |
| 2026-04-14 11:57 | 50.13783 | 8.75488 | 7307 ft | 266 kts | 22° |
| 2026-04-14 11:57 | 50.15508 | 8.76642 | 8065 ft | 273 kts | 22° |
| 2026-04-14 11:58 | 50.17270 | 8.77829 | 8782 ft | 280 kts | 22° |
| 2026-04-14 11:58 | 50.19086 | 8.79057 | 9509 ft | 287 kts | 22° |
| 2026-04-14 11:58 | 50.20911 | 8.80297 | 10190 ft | 294 kts | 22° |
| 2026-04-14 11:58 | 50.22806 | 8.81683 | 10631 ft | 311 kts | 32° |
| 2026-04-14 11:59 | 50.24568 | 8.83851 | 10841 ft | 335 kts | 40° |
| 2026-04-14 11:59 | 50.26395 | 8.86295 | 11088 ft | 354 kts | 40° |
| 2026-04-14 11:59 | 50.28282 | 8.88852 | 11679 ft | 361 kts | 40° |
| 2026-04-14 11:59 | 50.30192 | 8.91451 | 12359 ft | 366 kts | 40° |
| 2026-04-14 12:00 | 50.32123 | 8.94084 | 13035 ft | 370 kts | 40° |
| 2026-04-14 12:00 | 50.34075 | 8.96747 | 13726 ft | 374 kts | 40° |
| 2026-04-14 12:00 | 50.36050 | 8.99444 | 14348 ft | 379 kts | 40° |
| 2026-04-14 12:00 | 50.38047 | 9.02172 | 14963 ft | 382 kts | 40° |
| 2026-04-14 12:01 | 50.40057 | 9.04916 | 15579 ft | 385 kts | 40° |
| 2026-04-14 12:01 | 50.42088 | 9.07684 | 16204 ft | 388 kts | 40° |
| 2026-04-14 12:01 | 50.44136 | 9.10481 | 16816 ft | 392 kts | 40° |
| 2026-04-14 12:01 | 50.46202 | 9.13307 | 17419 ft | 395 kts | 40° |
| 2026-04-14 12:02 | 50.48280 | 9.16154 | 18021 ft | 399 kts | 40° |
| 2026-04-14 12:02 | 50.50352 | 9.18998 | 18593 ft | 402 kts | 40° |
| 2026-04-14 12:02 | 50.52469 | 9.21905 | 19127 ft | 406 kts | 40° |
| 2026-04-14 12:02 | 50.54602 | 9.24835 | 19635 ft | 409 kts | 40° |
| 2026-04-14 12:03 | 50.56757 | 9.27798 | 20146 ft | 413 kts | 40° |
| 2026-04-14 12:03 | 50.58932 | 9.30796 | 20655 ft | 417 kts | 40° |
| 2026-04-14 12:03 | 50.61118 | 9.33810 | 21149 ft | 420 kts | 40° |
| 2026-04-14 12:03 | 50.63326 | 9.36859 | 21621 ft | 424 kts | 40° |
| 2026-04-14 12:04 | 50.65549 | 9.39939 | 22090 ft | 427 kts | 40° |
| 2026-04-14 12:04 | 50.67793 | 9.43047 | 22561 ft | 431 kts | 40° |
| 2026-04-14 12:04 | 50.70055 | 9.46188 | 23004 ft | 434 kts | 41° |
| 2026-04-14 12:04 | 50.72322 | 9.49344 | 23449 ft | 438 kts | 41° |
| 2026-04-14 12:05 | 50.74615 | 9.52535 | 23860 ft | 441 kts | 41° |
| 2026-04-14 12:05 | 50.76925 | 9.55748 | 24225 ft | 443 kts | 40° |
| 2026-04-14 12:05 | 50.79239 | 9.58971 | 24607 ft | 445 kts | 41° |
| 2026-04-14 12:05 | 50.81560 | 9.62215 | 24995 ft | 447 kts | 41° |
| 2026-04-14 12:06 | 50.83894 | 9.65480 | 25350 ft | 448 kts | 41° |
| 2026-04-14 12:06 | 50.86123 | 9.68953 | 25706 ft | 451 kts | 49° |
| 2026-04-14 12:06 | 50.87984 | 9.72945 | 26046 ft | 452 kts | 59° |
| 2026-04-14 12:06 | 50.89451 | 9.77362 | 26395 ft | 454 kts | 65° |
| 2026-04-14 12:07 | 50.90823 | 9.81874 | 26719 ft | 456 kts | 64° |
| 2026-04-14 12:07 | 50.92206 | 9.86393 | 27043 ft | 458 kts | 64° |
| 2026-04-14 12:07 | 50.93602 | 9.90947 | 27351 ft | 460 kts | 64° |
| 2026-04-14 12:07 | 50.95002 | 9.95518 | 27662 ft | 462 kts | 64° |
| 2026-04-14 12:08 | 50.96404 | 10.00108 | 27960 ft | 464 kts | 64° |
| 2026-04-14 12:08 | 50.97813 | 10.04729 | 28248 ft | 465 kts | 64° |
| 2026-04-14 12:08 | 50.99222 | 10.09352 | 28538 ft | 467 kts | 64° |
| 2026-04-14 12:08 | 51.00638 | 10.14012 | 28809 ft | 468 kts | 65° |
| 2026-04-14 12:09 | 51.02030 | 10.18625 | 29077 ft | 470 kts | 65° |
| 2026-04-14 12:09 | 51.03438 | 10.23311 | 29324 ft | 471 kts | 65° |
| 2026-04-14 12:09 | 51.04852 | 10.28018 | 29565 ft | 473 kts | 65° |
| 2026-04-14 12:09 | 51.06513 | 10.32536 | 29833 ft | 473 kts | 52° |
| 2026-04-14 12:10 | 51.08730 | 10.36382 | 30186 ft | 472 kts | 41° |
| 2026-04-14 12:10 | 51.11316 | 10.39593 | 30473 ft | 470 kts | 33° |
| 2026-04-14 12:10 | 51.14066 | 10.42384 | 30756 ft | 469 kts | 32° |
| 2026-04-14 12:10 | 51.16801 | 10.45231 | 31041 ft | 469 kts | 33° |
| 2026-04-14 12:11 | 51.19506 | 10.48128 | 31323 ft | 468 kts | 33° |
| 2026-04-14 12:11 | 51.22197 | 10.51049 | 31613 ft | 467 kts | 33° |
| 2026-04-14 12:11 | 51.24883 | 10.53965 | 31911 ft | 466 kts | 33° |
| 2026-04-14 12:11 | 51.27563 | 10.56848 | 32201 ft | 465 kts | 33° |
| 2026-04-14 12:12 | 51.30255 | 10.59723 | 32489 ft | 464 kts | 32° |
| 2026-04-14 12:12 | 51.32935 | 10.62574 | 32778 ft | 464 kts | 32° |
| 2026-04-14 12:12 | 51.35629 | 10.65439 | 33062 ft | 463 kts | 32° |
| 2026-04-14 12:12 | 51.38306 | 10.68293 | 33349 ft | 463 kts | 33° |
| 2026-04-14 12:13 | 51.40939 | 10.71254 | 33632 ft | 462 kts | 35° |
| 2026-04-14 12:13 | 51.43488 | 10.74297 | 33925 ft | 461 kts | 36° |
| 2026-04-14 12:13 | 51.46029 | 10.77440 | 34127 ft | 461 kts | 37° |
| 2026-04-14 12:13 | 51.48585 | 10.80644 | 34164 ft | 461 kts | 37° |
| 2026-04-14 12:14 | 51.53459 | 10.87313 | 34163 ft | 462 kts | 46° |
| 2026-04-14 12:14 | 51.57539 | 10.95212 | 34164 ft | 463 kts | 50° |
| 2026-04-14 12:15 | 51.61605 | 11.03243 | 34163 ft | 463 kts | 50° |
| 2026-04-14 12:15 | 51.65664 | 11.11278 | 34167 ft | 462 kts | 50° |
| 2026-04-14 12:16 | 51.69709 | 11.19329 | 34161 ft | 462 kts | 50° |
| 2026-04-14 12:16 | 51.73741 | 11.27393 | 34162 ft | 462 kts | 50° |
| 2026-04-14 12:17 | 51.77091 | 11.34107 | 34165 ft | 462 kts | 50° |
| 2026-04-14 12:17 | 51.81124 | 11.42203 | 34163 ft | 462 kts | 51° |
| 2026-04-14 12:18 | 51.85145 | 11.50303 | 34161 ft | 462 kts | 51° |
| 2026-04-14 12:18 | 51.89161 | 11.58403 | 34161 ft | 462 kts | 51° |
| 2026-04-14 12:19 | 51.93174 | 11.66526 | 34156 ft | 461 kts | 51° |
| 2026-04-14 12:19 | 51.97175 | 11.74676 | 34153 ft | 462 kts | 51° |
| 2026-04-14 12:20 | 52.01135 | 11.82873 | 34155 ft | 462 kts | 53° |
| 2026-04-14 12:20 | 52.04894 | 11.91346 | 34149 ft | 462 kts | 55° |
| 2026-04-14 12:21 | 52.08552 | 11.99919 | 34143 ft | 462 kts | 55° |
| 2026-04-14 12:21 | 52.12252 | 12.08474 | 34142 ft | 462 kts | 54° |
| 2026-04-14 12:22 | 52.15983 | 12.16990 | 34138 ft | 462 kts | 54° |
| 2026-04-14 12:22 | 52.19686 | 12.25443 | 34134 ft | 462 kts | 54° |
| 2026-04-14 12:23 | 52.23402 | 12.33986 | 34128 ft | 462 kts | 54° |
| 2026-04-14 12:23 | 52.27104 | 12.42554 | 34127 ft | 462 kts | 55° |
| 2026-04-14 12:24 | 52.30802 | 12.51137 | 34124 ft | 462 kts | 55° |
| 2026-04-14 12:24 | 52.34494 | 12.59740 | 34116 ft | 462 kts | 55° |
| 2026-04-14 12:25 | 52.38181 | 12.68357 | 34114 ft | 462 kts | 55° |
| 2026-04-14 12:25 | 52.41846 | 12.76933 | 34110 ft | 463 kts | 55° |
| 2026-04-14 12:26 | 52.45529 | 12.85591 | 34103 ft | 463 kts | 55° |
| 2026-04-14 12:26 | 52.49209 | 12.94274 | 34101 ft | 463 kts | 55° |
| 2026-04-14 12:27 | 52.52884 | 13.02959 | 34104 ft | 463 kts | 56° |
| 2026-04-14 12:27 | 52.56553 | 13.11669 | 34095 ft | 464 kts | 56° |
| 2026-04-14 12:28 | 52.60213 | 13.20391 | 34100 ft | 464 kts | 56° |
| 2026-04-14 12:28 | 52.63875 | 13.29143 | 34095 ft | 464 kts | 56° |
| 2026-04-14 12:29 | 52.67533 | 13.37922 | 34099 ft | 465 kts | 56° |
| 2026-04-14 12:29 | 52.71189 | 13.46734 | 34089 ft | 465 kts | 56° |
| 2026-04-14 12:30 | 52.74837 | 13.55539 | 34091 ft | 466 kts | 56° |
| 2026-04-14 12:30 | 52.78486 | 13.64389 | 34093 ft | 466 kts | 57° |
| 2026-04-14 12:31 | 52.82125 | 13.73264 | 34096 ft | 467 kts | 57° |
| 2026-04-14 12:31 | 52.85768 | 13.82156 | 34100 ft | 467 kts | 57° |
| 2026-04-14 12:32 | 52.89406 | 13.91064 | 34101 ft | 467 kts | 56° |
| 2026-04-14 12:32 | 52.93761 | 13.98943 | 34094 ft | 468 kts | 39° |
| 2026-04-14 12:33 | 52.98978 | 14.05398 | 34092 ft | 468 kts | 37° |
| 2026-04-14 12:33 | 53.04219 | 14.11858 | 34090 ft | 469 kts | 37° |
| 2026-04-14 12:34 | 53.09456 | 14.18360 | 34094 ft | 470 kts | 37° |
| 2026-04-14 12:34 | 53.14701 | 14.24890 | 34093 ft | 471 kts | 37° |
| 2026-04-14 12:35 | 53.19940 | 14.31429 | 34092 ft | 471 kts | 37° |
| 2026-04-14 12:35 | 53.25010 | 14.38351 | 34092 ft | 471 kts | 48° |
| 2026-04-14 12:36 | 53.28781 | 14.47186 | 34089 ft | 467 kts | 65° |
| 2026-04-14 12:36 | 53.31159 | 14.57151 | 34093 ft | 465 kts | 72° |
| 2026-04-14 12:37 | 53.33404 | 14.67390 | 34093 ft | 466 kts | 72° |
| 2026-04-14 12:37 | 53.35602 | 14.77503 | 34089 ft | 466 kts | 73° |
| 2026-04-14 12:38 | 53.39361 | 14.92551 | 34096 ft | 470 kts | 63° |
| 2026-04-14 12:39 | 53.42562 | 15.02107 | 34097 ft | 470 kts | 63° |
| 2026-04-14 12:39 | 53.45742 | 15.11702 | 34098 ft | 470 kts | 63° |
| 2026-04-14 12:40 | 53.48897 | 15.21317 | 34103 ft | 470 kts | 63° |
| 2026-04-14 12:40 | 53.52058 | 15.30958 | 34107 ft | 471 kts | 63° |
| 2026-04-14 12:41 | 53.55217 | 15.40592 | 34112 ft | 471 kts | 63° |
| 2026-04-14 12:41 | 53.58357 | 15.50196 | 34129 ft | 471 kts | 63° |
| 2026-04-14 12:42 | 53.61504 | 15.59878 | 34128 ft | 471 kts | 63° |
| 2026-04-14 12:42 | 53.64637 | 15.69575 | 34125 ft | 471 kts | 63° |
| 2026-04-14 12:43 | 53.67764 | 15.79279 | 34128 ft | 471 kts | 63° |
| 2026-04-14 12:43 | 53.70885 | 15.88985 | 34134 ft | 470 kts | 63° |
| 2026-04-14 12:44 | 53.73994 | 15.98694 | 34144 ft | 470 kts | 63° |
| 2026-04-14 12:44 | 53.77086 | 16.08397 | 34146 ft | 469 kts | 63° |
| 2026-04-14 12:45 | 53.81699 | 16.22970 | 34027 ft | 469 kts | 63° |
| 2026-04-14 12:45 | 53.83240 | 16.27836 | 33566 ft | 469 kts | 63° |
| 2026-04-14 12:45 | 53.84780 | 16.32705 | 33117 ft | 469 kts | 63° |
| 2026-04-14 12:46 | 53.86316 | 16.37576 | 32706 ft | 469 kts | 63° |
| 2026-04-14 12:46 | 53.87847 | 16.42447 | 32201 ft | 469 kts | 63° |
| 2026-04-14 12:46 | 53.89379 | 16.47341 | 31635 ft | 469 kts | 63° |
| 2026-04-14 12:46 | 53.90910 | 16.52243 | 31054 ft | 470 kts | 63° |
| 2026-04-14 12:47 | 53.92586 | 16.57003 | 30497 ft | 472 kts | 58° |
| 2026-04-14 12:47 | 53.94387 | 16.61677 | 29874 ft | 473 kts | 58° |
| 2026-04-14 12:47 | 53.96184 | 16.66346 | 29228 ft | 471 kts | 58° |
| 2026-04-14 12:47 | 53.97975 | 16.70996 | 28592 ft | 468 kts | 57° |
| 2026-04-14 12:48 | 53.99749 | 16.75606 | 27968 ft | 464 kts | 57° |
| 2026-04-14 12:48 | 54.01506 | 16.80186 | 27365 ft | 460 kts | 57° |
| 2026-04-14 12:48 | 54.03222 | 16.84676 | 26780 ft | 457 kts | 57° |
| 2026-04-14 12:48 | 54.04940 | 16.89187 | 26194 ft | 453 kts | 57° |
| 2026-04-14 12:49 | 54.06648 | 16.93682 | 25620 ft | 450 kts | 57° |
| 2026-04-14 12:49 | 54.08304 | 16.98168 | 25057 ft | 446 kts | 62° |
| 2026-04-14 12:49 | 54.09509 | 17.02999 | 24512 ft | 442 kts | 73° |
| 2026-04-14 12:49 | 54.10110 | 17.08107 | 23976 ft | 438 kts | 85° |
| 2026-04-14 12:50 | 54.10397 | 17.13265 | 23388 ft | 436 kts | 85° |
| 2026-04-14 12:50 | 54.10970 | 17.23486 | 22144 ft | 430 kts | 85° |
| 2026-04-14 12:50 | 54.11252 | 17.28527 | 21539 ft | 427 kts | 85° |
| 2026-04-14 12:51 | 54.11531 | 17.33551 | 20959 ft | 425 kts | 85° |
| 2026-04-14 12:51 | 54.11805 | 17.38564 | 20366 ft | 423 kts | 85° |
| 2026-04-14 12:51 | 54.12075 | 17.43543 | 19801 ft | 421 kts | 85° |
| 2026-04-14 12:51 | 54.12341 | 17.48510 | 19244 ft | 419 kts | 85° |
| 2026-04-14 12:52 | 54.12620 | 17.53437 | 18692 ft | 417 kts | 82° |
| 2026-04-14 12:52 | 54.13118 | 17.58302 | 18108 ft | 416 kts | 80° |
| 2026-04-14 12:52 | 54.13674 | 17.63140 | 17484 ft | 414 kts | 79° |
| 2026-04-14 12:52 | 54.14248 | 17.67862 | 16869 ft | 399 kts | 78° |
| 2026-04-14 12:53 | 54.14817 | 17.72406 | 16275 ft | 384 kts | 77° |
| 2026-04-14 12:53 | 54.15738 | 17.76582 | 15694 ft | 371 kts | 60° |
| 2026-04-14 12:53 | 54.17263 | 17.80031 | 15130 ft | 358 kts | 43° |
| 2026-04-14 12:53 | 54.19201 | 17.82480 | 14577 ft | 346 kts | 25° |
| 2026-04-14 12:54 | 54.21405 | 17.83894 | 14027 ft | 334 kts | 9° |
| 2026-04-14 12:54 | 54.23674 | 17.84424 | 13412 ft | 325 kts | 4° |
| 2026-04-14 12:54 | 54.25901 | 17.84850 | 12803 ft | 319 kts | 4° |
| 2026-04-14 12:54 | 54.28089 | 17.85271 | 12207 ft | 313 kts | 4° |
| 2026-04-14 12:55 | 54.30242 | 17.85688 | 11611 ft | 308 kts | 5° |
| 2026-04-14 12:55 | 54.32358 | 17.86100 | 11049 ft | 304 kts | 5° |
| 2026-04-14 12:55 | 54.34449 | 17.86506 | 10478 ft | 300 kts | 5° |
| 2026-04-14 12:55 | 54.36507 | 17.86907 | 9904 ft | 296 kts | 5° |
| 2026-04-14 12:56 | 54.38536 | 17.87300 | 9294 ft | 292 kts | 6° |
| 2026-04-14 12:56 | 54.40548 | 17.87689 | 8686 ft | 288 kts | 6° |
| 2026-04-14 12:56 | 54.42528 | 17.88075 | 8092 ft | 285 kts | 6° |
| 2026-04-14 12:56 | 54.44487 | 17.88461 | 7505 ft | 282 kts | 6° |
| 2026-04-14 12:57 | 54.46423 | 17.88843 | 6922 ft | 279 kts | 7° |
| 2026-04-14 12:57 | 54.48292 | 17.89597 | 6350 ft | 273 kts | 31° |
| 2026-04-14 12:57 | 54.49640 | 17.91737 | 5750 ft | 260 kts | 65° |
| 2026-04-14 12:57 | 54.50112 | 17.94594 | 5242 ft | 241 kts | 96° |
| 2026-04-14 12:58 | 54.49762 | 17.97283 | 4844 ft | 223 kts | 117° |
| 2026-04-14 12:58 | 54.49172 | 17.99702 | 4634 ft | 218 kts | 116° |
| 2026-04-14 12:58 | 54.48591 | 18.02110 | 4420 ft | 217 kts | 116° |
| 2026-04-14 12:58 | 54.48014 | 18.04504 | 4212 ft | 216 kts | 116° |
| 2026-04-14 12:59 | 54.47449 | 18.06837 | 4035 ft | 213 kts | 116° |
| 2026-04-14 12:59 | 54.46882 | 18.09178 | 3883 ft | 212 kts | 115° |
| 2026-04-14 12:59 | 54.46319 | 18.11508 | 3720 ft | 210 kts | 115° |
| 2026-04-14 12:59 | 54.45763 | 18.13816 | 3569 ft | 208 kts | 115° |
| 2026-04-14 13:00 | 54.45210 | 18.16099 | 3416 ft | 204 kts | 115° |
| 2026-04-14 13:00 | 54.44674 | 18.18310 | 3257 ft | 196 kts | 115° |
| 2026-04-14 13:00 | 54.44157 | 18.20448 | 3093 ft | 191 kts | 115° |
| 2026-04-14 13:00 | 54.43659 | 18.22502 | 2940 ft | 181 kts | 115° |
| 2026-04-14 13:01 | 54.43195 | 18.24420 | 2822 ft | 166 kts | 116° |
| 2026-04-14 13:01 | 54.42773 | 18.26159 | 2652 ft | 149 kts | 116° |
| 2026-04-14 13:01 | 54.42395 | 18.27714 | 2510 ft | 134 kts | 115° |
| 2026-04-14 13:01 | 54.42034 | 18.29144 | 2383 ft | 128 kts | 116° |
| 2026-04-14 13:02 | 54.41699 | 18.30551 | 2211 ft | 126 kts | 114° |
| 2026-04-14 13:02 | 54.41373 | 18.31946 | 2050 ft | 125 kts | 115° |
| 2026-04-14 13:02 | 54.41039 | 18.33324 | 1925 ft | 124 kts | 116° |
| 2026-04-14 13:02 | 54.40701 | 18.34694 | 1762 ft | 125 kts | 115° |
| 2026-04-14 13:03 | 54.40367 | 18.36047 | 1714 ft | 124 kts | 115° |
| 2026-04-14 13:03 | 54.40031 | 18.37412 | 1633 ft | 124 kts | 116° |
| 2026-04-14 13:03 | 54.39696 | 18.38787 | 1483 ft | 126 kts | 115° |
| 2026-04-14 13:03 | 54.39355 | 18.40164 | 1302 ft | 125 kts | 116° |
| 2026-04-14 13:04 | 54.39009 | 18.41542 | 1082 ft | 126 kts | 114° |
| 2026-04-14 13:04 | 54.38669 | 18.42923 | 849 ft | 125 kts | 115° |
| 2026-04-14 13:04 | 54.38334 | 18.44296 | 637 ft | 124 kts | 114° |
| 2026-04-14 13:04 | 54.38001 | 18.45655 | 476 ft | 121 kts | 114° |
| 2026-04-14 13:05 | 54.37737 | 18.46702 | 472 ft | 58 kts | 113° |
| 2026-04-14 13:05 | 54.37616 | 18.47204 | 473 ft | 41 kts | 107° |
| 2026-04-14 13:05 | 54.37598 | 18.47494 | 482 ft | 35 kts | 86° |
| 2026-04-14 13:05 | 54.37646 | 18.47712 | 483 ft | 13 kts | 358° |
| 2026-04-14 13:06 | 54.37700 | 18.47571 | 479 ft | 16 kts | 294° |
| 2026-04-14 13:06 | 54.37743 | 18.47401 | 478 ft | 15 kts | 292° |
| 2026-04-14 13:06 | 54.37783 | 18.47233 | 473 ft | 15 kts | 292° |
| 2026-04-14 13:06 | 54.37823 | 18.47066 | 474 ft | 15 kts | 292° |
| 2026-04-14 13:07 | 54.37892 | 18.46943 | 475 ft | 14 kts | 320° |
| 2026-04-14 13:07 | 54.37936 | 18.46797 | 474 ft | 14 kts | 293° |
| 2026-04-14 13:07 | 54.37972 | 18.46648 | 473 ft | 13 kts | 292° |
| 2026-04-14 13:07 | 54.38036 | 18.46617 | 471 ft | 10 kts | 7° |
| 2026-04-14 13:08 | 54.38082 | 18.46545 | 471 ft | 11 kts | 293° |
| 2026-04-14 13:08 | 54.38112 | 18.46427 | 469 ft | 10 kts | 297° |
| 2026-04-14 13:08 | 54.38153 | 18.46432 | 470 ft | 0 kts | 19° |